Time;durP1;ratioP1;P1;durP2;ratioP2;P2;SDS_P1;SDS_P2;PMS_P1;PMS_P2;Temp;Humidity;BMP_temperature;BMP_pressure;BME280_temperature;BME280_humidity;BME280_pressure;Samples;Min_cycle;Max_cycle;Signal;HPM_P1;HPM_P2
2023/01/31 00:01:21;;;;;;;2.9;1.7;;;;;;;;;;;;;
2023/01/31 00:03:49;;;;;;;3.7;2.2;;;;;;;;;;;;;
2023/01/31 00:06:14;;;;;;;5.9;2;;;;;;;;;;;;;
2023/01/31 00:08:39;;;;;;;3.1;2.1;;;;;;;;;;;;;
2023/01/31 00:11:10;;;;;;;2.2;2;;;;;;;;;;;;;
2023/01/31 00:13:42;;;;;;;2.4;1.8;;;;;;;;;;;;;
2023/01/31 00:16:08;;;;;;;2.7;1.8;;;;;;;;;;;;;
2023/01/31 00:18:33;;;;;;;2.7;1.9;;;;;;;;;;;;;
2023/01/31 00:20:58;;;;;;;3.3;1.4;;;;;;;;;;;;;
2023/01/31 00:23:24;;;;;;;2.7;1.7;;;;;;;;;;;;;
2023/01/31 00:25:52;;;;;;;1.7;1.5;;;;;;;;;;;;;
2023/01/31 00:28:24;;;;;;;2.5;2;;;;;;;;;;;;;
2023/01/31 00:30:56;;;;;;;3;2.1;;;;;;;;;;;;;
2023/01/31 00:36:01;;;;;;;2.9;2.4;;;;;;;;;;;;;
2023/01/31 00:38:28;;;;;;;13.2;9.5;;;;;;;;;;;;;
2023/01/31 00:40:53;;;;;;;5.1;2.4;;;;;;;;;;;;;
2023/01/31 00:43:18;;;;;;;9.1;3.9;;;;;;;;;;;;;
2023/01/31 00:45:43;;;;;;;7.4;4;;;;;;;;;;;;;
2023/01/31 00:48:09;;;;;;;8.7;4;;;;;;;;;;;;;
2023/01/31 00:50:34;;;;;;;6.9;3.4;;;;;;;;;;;;;
2023/01/31 00:53:01;;;;;;;9;4.2;;;;;;;;;;;;;
2023/01/31 00:55:31;;;;;;;6.1;3.3;;;;;;;;;;;;;
2023/01/31 00:57:58;;;;;;;3.2;1.9;;;;;;;;;;;;;
2023/01/31 01:00:27;;;;;;;2.5;1.9;;;;;;;;;;;;;
2023/01/31 01:02:53;;;;;;;1.9;1.8;;;;;;;;;;;;;
2023/01/31 01:05:18;;;;;;;2.2;2;;;;;;;;;;;;;
2023/01/31 01:07:43;;;;;;;1.6;1.3;;;;;;;;;;;;;
2023/01/31 01:10:08;;;;;;;2.2;1.4;;;;;;;;;;;;;
2023/01/31 01:12:33;;;;;;;2.6;1.5;;;;;;;;;;;;;
2023/01/31 01:14:58;;;;;;;1.4;1.3;;;;;;;;;;;;;
2023/01/31 01:17:23;;;;;;;2.4;1.8;;;;;;;;;;;;;
2023/01/31 01:19:50;;;;;;;2.2;1.6;;;;;;;;;;;;;
2023/01/31 01:22:16;;;;;;;3;2;;;;;;;;;;;;;
2023/01/31 01:24:41;;;;;;;2.3;1.7;;;;;;;;;;;;;
2023/01/31 01:27:06;;;;;;;4.7;4;;;;;;;;;;;;;
2023/01/31 01:29:31;;;;;;;3.3;1.9;;;;;;;;;;;;;
2023/01/31 01:31:57;;;;;;;2.4;1.5;;;;;;;;;;;;;
2023/01/31 01:34:23;;;;;;;2.7;1.6;;;;;;;;;;;;;
2023/01/31 01:36:48;;;;;;;2;1.7;;;;;;;;;;;;;
2023/01/31 01:39:15;;;;;;;3.5;1.9;;;;;;;;;;;;;
2023/01/31 01:41:40;;;;;;;2.8;1.9;;;;;;;;;;;;;
2023/01/31 01:44:07;;;;;;;3.1;2.2;;;;;;;;;;;;;
2023/01/31 01:46:33;;;;;;;5.4;5;;;;;;;;;;;;;
2023/01/31 01:48:59;;;;;;;3.6;2.1;;;;;;;;;;;;;
2023/01/31 01:51:24;;;;;;;4.7;3.8;;;;;;;;;;;;;
2023/01/31 01:53:50;;;;;;;2.6;1.7;;;;;;;;;;;;;
2023/01/31 01:56:15;;;;;;;3;1.9;;;;;;;;;;;;;
2023/01/31 01:58:41;;;;;;;3.7;1.9;;;;;;;;;;;;;
2023/01/31 02:01:06;;;;;;;4.3;2.4;;;;;;;;;;;;;
2023/01/31 02:03:31;;;;;;;2.9;1.9;;;;;;;;;;;;;
2023/01/31 02:05:58;;;;;;;3.1;1.6;;;;;;;;;;;;;
2023/01/31 02:08:24;;;;;;;3.8;2.1;;;;;;;;;;;;;
2023/01/31 02:10:49;;;;;;;3.2;2;;;;;;;;;;;;;
2023/01/31 02:13:14;;;;;;;3;1.7;;;;;;;;;;;;;
2023/01/31 02:15:42;;;;;;;2.7;1.7;;;;;;;;;;;;;
2023/01/31 02:18:07;;;;;;;3;1.9;;;;;;;;;;;;;
2023/01/31 02:20:33;;;;;;;2.5;2;;;;;;;;;;;;;
2023/01/31 02:22:58;;;;;;;4.2;3.1;;;;;;;;;;;;;
2023/01/31 02:25:26;;;;;;;4;2.3;;;;;;;;;;;;;
2023/01/31 02:27:51;;;;;;;2.8;1.8;;;;;;;;;;;;;
2023/01/31 02:30:17;;;;;;;2.4;2.1;;;;;;;;;;;;;
2023/01/31 02:32:42;;;;;;;3.7;1.9;;;;;;;;;;;;;
2023/01/31 02:35:07;;;;;;;2.6;1.9;;;;;;;;;;;;;
2023/01/31 02:37:32;;;;;;;2.2;1.7;;;;;;;;;;;;;
2023/01/31 02:39:57;;;;;;;3.3;1.7;;;;;;;;;;;;;
2023/01/31 02:42:22;;;;;;;4;1.7;;;;;;;;;;;;;
2023/01/31 02:45:00;;;;;;;2.7;1.8;;;;;;;;;;;;;
2023/01/31 02:47:13;;;;;;;1.8;1.5;;;;;;;;;;;;;
2023/01/31 02:49:38;;;;;;;2;1.5;;;;;;;;;;;;;
2023/01/31 02:52:16;;;;;;;2.4;1.5;;;;;;;;;;;;;
2023/01/31 02:56:13;;;;;;;3;1.5;;;;;;;;;;;;;
2023/01/31 02:56:53;;;;;;;2.6;1.6;;;;;;;;;;;;;
2023/01/31 02:59:24;;;;;;;3;1.7;;;;;;;;;;;;;
2023/01/31 03:01:46;;;;;;;2.5;1.7;;;;;;;;;;;;;
2023/01/31 03:04:12;;;;;;;1.9;1.7;;;;;;;;;;;;;
2023/01/31 03:06:38;;;;;;;2.1;1.7;;;;;;;;;;;;;
2023/01/31 03:09:03;;;;;;;3.1;2;;;;;;;;;;;;;
2023/01/31 03:11:28;;;;;;;2.9;1.6;;;;;;;;;;;;;
2023/01/31 03:13:55;;;;;;;1.6;1.3;;;;;;;;;;;;;
2023/01/31 03:18:43;;;;;;;4.5;1.7;;;;;;;;;;;;;
2023/01/31 03:21:09;;;;;;;2.5;1.5;;;;;;;;;;;;;
2023/01/31 03:23:36;;;;;;;2;1.3;;;;;;;;;;;;;
2023/01/31 03:25:59;;;;;;;2.7;1.6;;;;;;;;;;;;;
2023/01/31 03:28:26;;;;;;;3.5;1.8;;;;;;;;;;;;;
2023/01/31 03:30:51;;;;;;;2.5;1.6;;;;;;;;;;;;;
2023/01/31 03:33:18;;;;;;;3;1.7;;;;;;;;;;;;;
2023/01/31 03:35:43;;;;;;;2.9;1.8;;;;;;;;;;;;;
2023/01/31 03:38:09;;;;;;;2.6;1.9;;;;;;;;;;;;;
2023/01/31 03:40:34;;;;;;;2.3;1.4;;;;;;;;;;;;;
2023/01/31 03:42:59;;;;;;;1.9;1.6;;;;;;;;;;;;;
2023/01/31 03:45:25;;;;;;;2;1.8;;;;;;;;;;;;;
2023/01/31 03:47:50;;;;;;;3.7;1.8;;;;;;;;;;;;;
2023/01/31 03:50:16;;;;;;;2.1;1.8;;;;;;;;;;;;;
2023/01/31 03:52:43;;;;;;;2.4;1.7;;;;;;;;;;;;;
2023/01/31 03:55:08;;;;;;;2.4;1.6;;;;;;;;;;;;;
2023/01/31 03:57:34;;;;;;;3.3;2.3;;;;;;;;;;;;;
2023/01/31 03:59:59;;;;;;;4.1;2.3;;;;;;;;;;;;;
2023/01/31 04:02:34;;;;;;;3.5;2.1;;;;;;;0.65;86.0498;944.597;;;;
2023/01/31 04:05:01;;;;;;;3;2.1;;;;;;;0.68;85.93262;944.6859;;;;
2023/01/31 04:07:27;;;;;;;4.5;2.6;;;;;;;0.57;86.87207;944.6664;;;;
2023/01/31 04:09:57;;;;;;;4.6;2.8;;;;;;;0.6;86.46484;944.6653;;;;
2023/01/31 04:12:29;;;;;;;3.3;2.1;;;;;;;0.69;86.56152;944.6849;;;;
2023/01/31 04:14:54;;;;;;;5.1;2.7;;;;;;;0.71;86.74219;944.6208;;;;
2023/01/31 04:17:26;;;;;;;4.6;2.1;;;;;;;0.6;85.92969;944.6497;;;;
2023/01/31 04:19:57;;;;;;;2.9;2;;;;;;;0.42;86.14941;944.7085;;;;
2023/01/31 04:22:22;;;;;;;2.2;1.8;;;;;;;0.11;87.9248;944.637;;;;
2023/01/31 04:24:49;;;;;;;3.5;2.4;;;;;;;0.07;88.71777;944.8207;;;;
2023/01/31 04:27:16;;;;;;;4.1;2.1;;;;;;;0.16;88.77051;944.8495;;;;
2023/01/31 04:29:41;;;;;;;2.8;2.1;;;;;;;0.28;88.33789;944.8387;;;;
2023/01/31 04:32:10;;;;;;;5.4;2.8;;;;;;;0.38;87.61133;944.8328;;;;
2023/01/31 04:34:36;;;;;;;4.1;2.4;;;;;;;0.44;87.25684;944.7645;;;;
2023/01/31 04:37:07;;;;;;;3.1;2.3;;;;;;;0.5;86.08789;944.8345;;;;
2023/01/31 04:39:38;;;;;;;4.9;2.6;;;;;;;0.4;85.86621;944.9348;;;;
2023/01/31 04:42:11;;;;;;;3.2;1.8;;;;;;;0.33;85.61816;944.9288;;;;
2023/01/31 04:44:42;;;;;;;3.9;2;;;;;;;0.35;86.3457;944.9297;;;;
2023/01/31 04:47:11;;;;;;;4.9;2.3;;;;;;;0.13;87.19336;945.0231;;;;
2023/01/31 04:49:36;;;;;;;4.3;2.4;;;;;;;0.13;87.68359;945.046;;;;
2023/01/31 04:52:06;;;;;;;4.9;2.9;;;;;;;0.11;88.04785;945.0019;;;;
2023/01/31 04:54:37;;;;;;;3.4;2;;;;;;;0.23;87.74707;944.9492;;;;
2023/01/31 04:57:11;;;;;;;2.9;2.2;;;;;;;0.3;87.16016;945.0029;;;;
2023/01/31 04:59:36;;;;;;;2.3;1.9;;;;;;;0.14;85.99121;945.0792;;;;
2023/01/31 05:02:13;;;;;;;4.3;2.7;;;;;;;0;87.82227;945.1622;;;;
2023/01/31 05:04:36;;;;;;;3.9;2.5;;;;;;;0.09;88.06641;945.2497;;;;
2023/01/31 05:07:04;;;;;;;6.1;2.6;;;;;;;-0.01;88.45703;945.2489;;;;
2023/01/31 05:09:29;;;;;;;2.7;2.2;;;;;;;-0.05;89.10547;945.2994;;;;
2023/01/31 05:11:58;;;;;;;3.8;2.2;;;;;;;0.17;88.4375;945.3525;;;;
2023/01/31 05:15:13;;;;;;;2.3;2.1;;;;;;;0.29;87.89551;945.324;;;;
2023/01/31 05:17:38;;;;;;;8;5.7;;;;;;;0.26;88.60156;945.3159;;;;
2023/01/31 05:20:03;;;;;;;7.4;3.9;;;;;;;0.29;87.67285;945.3911;;;;
2023/01/31 05:22:28;;;;;;;5.4;3.1;;;;;;;0.35;87.39453;945.2972;;;;
2023/01/31 05:24:54;;;;;;;4;2.5;;;;;;;0.42;86.76465;945.4461;;;;
2023/01/31 05:27:19;;;;;;;4;2.6;;;;;;;0.23;86.05664;945.5128;;;;
2023/01/31 05:33:15;;;;;;;5.2;3.5;;;;;;;0.18;85.72266;945.5109;;;;
2023/01/31 05:35:43;;;;;;;5.1;3.9;;;;;;;-0.05;87.5918;945.7366;;;;
2023/01/31 05:38:08;;;;;;;4.3;3.2;;;;;;;-0.02;88.78809;945.7481;;;;
2023/01/31 05:40:37;;;;;;;8.2;4.1;;;;;;;0.16;88.20215;945.7178;;;;
2023/01/31 05:43:06;;;;;;;8.1;4.1;;;;;;;0.22;88.77246;945.7461;;;;
2023/01/31 05:45:31;;;;;;;7;3.6;;;;;;;0.33;88.3916;945.8095;;;;
2023/01/31 05:47:58;;;;;;;9.6;4.7;;;;;;;0.27;88.23535;945.8244;;;;
2023/01/31 05:50:23;;;;;;;9;4.1;;;;;;;0.36;88.19824;945.8326;;;;
2023/01/31 05:52:50;;;;;;;6.6;3.8;;;;;;;0.46;87.74023;945.7794;;;;
2023/01/31 05:55:15;;;;;;;8.4;4.1;;;;;;;0.41;87.90918;945.6614;;;;
2023/01/31 05:57:44;;;;;;;9.5;4.7;;;;;;;0.44;88.18262;945.8017;;;;
2023/01/31 06:00:09;;;;;;;10.6;6.3;;;;;;;0.48;87.52051;945.8361;;;;
2023/01/31 06:02:38;;;;;;;11.8;6.3;;;;;;;0.47;87.58789;945.9;;;;
2023/01/31 06:05:11;;;;;;;13.8;7.6;;;;;;;0.42;88.02246;945.9347;;;;
2023/01/31 06:07:43;;;;;;;18.9;12.7;;;;;;;0.45;88.42969;945.9208;;;;
2023/01/31 06:10:11;;;;;;;13.8;9.2;;;;;;;0.47;88.48926;945.9113;;;;
2023/01/31 06:12:43;;;;;;;13.6;9.5;;;;;;;0.53;87.83301;945.9487;;;;
2023/01/31 06:15:13;;;;;;;15.4;7.9;;;;;;;0.54;87.78125;945.9888;;;;
2023/01/31 06:17:38;;;;;;;12.1;7.4;;;;;;;0.52;87.75293;945.9691;;;;
2023/01/31 06:20:07;;;;;;;9.3;6.1;;;;;;;0.43;87.74512;946.0064;;;;
2023/01/31 06:22:38;;;;;;;8.5;5.2;;;;;;;0.26;88.41211;946.0405;;;;
2023/01/31 06:25:03;;;;;;;9;5.2;;;;;;;0.29;88.65332;946.0595;;;;
2023/01/31 06:27:38;;;;;;;7.8;5.1;;;;;;;0.3;88.49902;946.0314;;;;
2023/01/31 06:30:04;;;;;;;12.4;5.9;;;;;;;0.44;87.41504;945.9844;;;;
2023/01/31 06:32:49;;;;;;;9.7;6.4;;;;;;;0.5;86.7793;945.9852;;;;
2023/01/31 06:35:19;;;;;;;12;6.9;;;;;;;0.4;87.125;946.0747;;;;
2023/01/31 06:37:50;;;;;;;25.2;14.8;;;;;;;0.38;87.8125;946.0783;;;;
2023/01/31 06:40:15;;;;;;;21;13.9;;;;;;;0.42;87.4541;946.0825;;;;
2023/01/31 06:42:47;;;;;;;8.1;5.1;;;;;;;0.08;89.08887;946.0701;;;;
2023/01/31 06:45:19;;;;;;;8.7;7.3;;;;;;;0;90.05273;946.0036;;;;
2023/01/31 06:47:50;;;;;;;13.6;10.3;;;;;;;-0.02;90.2041;946.0061;;;;
2023/01/31 06:50:24;;;;;;;11.3;9.4;;;;;;;0.11;89.5293;946.0245;;;;
2023/01/31 06:57:44;;;;;;;12.8;8.8;;;;;;;-0.05;89.16309;945.9025;;;;
2023/01/31 07:00:14;;;;;;;8.6;5.2;;;;;;;-0.21;88.9375;945.8606;;;;
2023/01/31 07:02:49;;;;;;;10.2;5.5;;;;;;;-0.17;89.40332;945.8033;;;;
2023/01/31 07:05:20;;;;;;;17.7;9.9;;;;;;;-0.12;89.24609;945.8712;;;;
2023/01/31 07:07:51;;;;;;;18.9;11.2;;;;;;;-0.08;88.7207;945.9465;;;;
2023/01/31 07:10:16;;;;;;;15.3;9.5;;;;;;;-0.1;89.03809;945.9075;;;;
2023/01/31 07:12:45;;;;;;;14.8;8.9;;;;;;;-0.03;89.03125;946.027;;;;
2023/01/31 07:15:10;;;;;;;9.8;7.1;;;;;;;-0.04;88.99609;945.9827;;;;
2023/01/31 07:31:21;;;;;;;8.5;5.3;;;;;;;1.4;86.86426;945.9317;;;;
2023/01/31 07:33:47;;;;;;;10.9;5.3;;;;;;;1.86;81.68652;945.9348;;;;
2023/01/31 07:36:12;;;;;;;7.4;5.3;;;;;;;2.57;78.97754;945.8839;;;;
2023/01/31 07:38:41;;;;;;;9.7;6;;;;;;;2.93;75.56641;945.8906;;;;
2023/01/31 07:41:07;;;;;;;7.8;5.6;;;;;;;3.8;73.55273;945.8766;;;;
2023/01/31 07:43:34;;;;;;;7.9;6;;;;;;;4.51;71.08789;945.9498;;;;
2023/01/31 07:45:59;;;;;;;7.9;5.3;;;;;;;4.91;68.00879;945.9043;;;;
2023/01/31 07:48:30;;;;;;;8.6;5.8;;;;;;;5.34;65.67383;945.9167;;;;
2023/01/31 07:50:58;;;;;;;9.8;5.7;;;;;;;5.51;63.6582;945.9565;;;;
2023/01/31 07:53:23;;;;;;;5.4;3.6;;;;;;;5.9;62.32715;945.9501;;;;
2023/01/31 07:55:54;;;;;;;8.1;5;;;;;;;6.34;60.73926;946.033;;;;
2023/01/31 07:58:25;;;;;;;5.1;4.1;;;;;;;6.91;58.12695;946.0367;;;;
2023/01/31 08:03:33;;;;;;;5.7;3.9;;;;;;;6.81;55.78125;946.0084;;;;
2023/01/31 08:05:45;;;;;;;6.4;4.5;;;;;;;5.66;60.54297;945.9511;;;;
2023/01/31 08:08:14;;;;;;;7.1;4.6;;;;;;;5.19;62.18945;945.9072;;;;
2023/01/31 08:10:40;;;;;;;5.1;3.8;;;;;;;4.93;62.82715;945.8864;;;;
2023/01/31 08:13:09;;;;;;;5.4;3;;;;;;;6.7;57.96289;945.8301;;;;
2023/01/31 08:15:32;;;;;;;4.2;3.1;;;;;;;7.45;55.10547;945.7852;;;;
2023/01/31 08:18:01;;;;;;;9.2;5.1;;;;;;;7.38;54.61914;945.7475;;;;
2023/01/31 08:20:29;;;;;;;5.8;4;;;;;;;8.77;52.07813;945.695;;;;
2023/01/31 08:22:54;;;;;;;3.7;2.9;;;;;;;7.31;52.87695;945.6844;;;;
2023/01/31 08:25:25;;;;;;;9.7;6;;;;;;;6.22;57.0166;945.6847;;;;
2023/01/31 08:27:48;;;;;;;10.3;5.9;;;;;;;7.71;55.35352;945.6116;;;;
2023/01/31 08:30:17;;;;;;;6;3.7;;;;;;;9.9;49.34277;945.5034;;;;
2023/01/31 08:32:42;;;;;;;7.9;4.4;;;;;;;10.7;46.49805;945.5383;;;;
2023/01/31 08:35:11;;;;;;;7.3;4.2;;;;;;;12.17;43.75684;945.4741;;;;
2023/01/31 08:37:36;;;;;;;8.9;5.3;;;;;;;13.34;41.11621;945.4604;;;;
2023/01/31 08:42:56;;;;;;;4.1;2.9;;;;;;;15.26;36.64648;945.5206;;;;
2023/01/31 08:45:24;;;;;;;5.4;3.5;;;;;;;15.93;35.46582;945.4933;;;;
2023/01/31 08:47:49;;;;;;;6.7;3.4;;;;;;;15.7;34.67285;945.4775;;;;
2023/01/31 08:50:18;;;;;;;4.4;2.9;;;;;;;16.13;34.39551;945.5;;;;
2023/01/31 08:52:47;;;;;;;3.7;2.4;;;;;;;16.46;33.81934;945.5211;;;;
2023/01/31 08:55:12;;;;;;;4.8;3.6;;;;;;;11.11;41.375;945.6514;;;;
2023/01/31 08:57:41;;;;;;;5.9;3.4;;;;;;;11.14;42.99121;945.6504;;;;
2023/01/31 09:00:05;;;;;;;3.8;2.8;;;;;;;12.13;41.1748;945.6786;;;;
2023/01/31 09:02:31;;;;;;;3.1;2.3;;;;;;;12.86;39.55566;945.5964;;;;
2023/01/31 09:04:55;;;;;;;2.5;1.8;;;;;;;13.25;37.5127;945.6266;;;;
2023/01/31 09:07:25;;;;;;;2.5;1.2;;;;;;;12.25;37.55176;945.5737;;;;
2023/01/31 09:09:50;;;;;;;3.1;1.4;;;;;;;11.31;39.04883;945.6052;;;;
2023/01/31 09:12:17;;;;;;;2.1;1.5;;;;;;;11.25;39.4668;945.5308;;;;
2023/01/31 09:14:42;;;;;;;2.4;1.5;;;;;;;10.48;40.79004;945.6169;;;;
2023/01/31 09:17:12;;;;;;;2;1.7;;;;;;;9.41;42.95508;945.603;;;;
2023/01/31 09:19:38;;;;;;;2.6;1.7;;;;;;;8.45;45.6084;945.5721;;;;
2023/01/31 09:22:09;;;;;;;2.7;1.9;;;;;;;7.68;47.62598;945.5099;;;;
2023/01/31 09:24:38;;;;;;;2.2;1.6;;;;;;;5.86;51.28711;945.5919;;;;
2023/01/31 09:27:04;;;;;;;1.9;1.6;;;;;;;5.59;53.51074;945.616;;;;
2023/01/31 09:29:30;;;;;;;2.6;1.8;;;;;;;4.97;56.00293;945.5897;;;;
2023/01/31 09:31:56;;;;;;;3;1.8;;;;;;;4.66;57.46191;945.634;;;;
2023/01/31 09:34:23;;;;;;;4.2;2.2;;;;;;;4.37;59.84277;945.6192;;;;
2023/01/31 09:36:48;;;;;;;3.7;2.4;;;;;;;4.12;62.39258;945.6044;;;;
2023/01/31 09:39:15;;;;;;;4;2.7;;;;;;;4.12;63.19238;945.6415;;;;
2023/01/31 09:41:40;;;;;;;4.6;2.8;;;;;;;4.17;63.9873;945.5844;;;;
2023/01/31 09:44:07;;;;;;;3.6;2.6;;;;;;;4.09;64.66113;945.5706;;;;
2023/01/31 09:46:39;;;;;;;4.3;3.4;;;;;;;4.08;65.51563;945.5776;;;;
2023/01/31 09:49:05;;;;;;;4.3;2.6;;;;;;;3.99;64.5332;945.5477;;;;
2023/01/31 09:51:29;;;;;;;3.7;2.5;;;;;;;3.84;64.63379;945.5447;;;;
2023/01/31 09:53:57;;;;;;;4.4;2.5;;;;;;;3.82;64.78809;945.5612;;;;
2023/01/31 09:56:22;;;;;;;6.3;2.5;;;;;;;3.89;64.88965;945.5984;;;;
2023/01/31 09:58:47;;;;;;;3.2;1.7;;;;;;;3.81;63.06738;945.5655;;;;
2023/01/31 10:01:12;;;;;;;2.8;1.7;;;;;;;3.83;64.07031;945.5292;;;;
2023/01/31 10:03:38;;;;;;;3.2;2;;;;;;;3.93;63.49023;945.5619;;;;
2023/01/31 10:06:11;;;;;;;3.2;2;;;;;;;4.02;63.61523;945.4776;;;;
2023/01/31 10:08:40;;;;;;;3.2;2.2;;;;;;;3.97;63.125;945.4808;;;;
2023/01/31 10:11:05;;;;;;;3.4;2.1;;;;;;;4;63.56934;945.4522;;;;
2023/01/31 10:13:35;;;;;;;3.4;1.9;;;;;;;4.02;63.17773;945.4156;;;;
2023/01/31 10:15:59;;;;;;;2.8;2.4;;;;;;;4.14;63.16211;945.3964;;;;
2023/01/31 10:18:27;;;;;;;3.4;2;;;;;;;4.02;63.90918;945.4069;;;;
2023/01/31 10:20:57;;;;;;;2.3;1.8;;;;;;;3.81;64.5957;945.416;;;;
2023/01/31 10:23:22;;;;;;;4.5;2.4;;;;;;;3.96;63.65234;945.351;;;;
2023/01/31 10:25:47;;;;;;;3.6;2.3;;;;;;;3.91;64.12793;945.3619;;;;
2023/01/31 10:28:14;;;;;;;2.4;1.9;;;;;;;3.96;62.9209;945.3708;;;;
2023/01/31 10:30:41;;;;;;;4.7;2.4;;;;;;;4.05;63.50781;945.3239;;;;
2023/01/31 10:33:06;;;;;;;4.6;2.7;;;;;;;4.18;64.25781;945.2816;;;;
2023/01/31 10:35:38;;;;;;;4.5;2.4;;;;;;;4.31;63.80566;945.137;;;;
2023/01/31 10:38:03;;;;;;;2.9;2.2;;;;;;;4.35;63.51758;945.2419;;;;
2023/01/31 10:40:31;;;;;;;3.9;2.3;;;;;;;4.41;63.04395;945.2301;;;;
2023/01/31 10:42:56;;;;;;;2.6;2.2;;;;;;;4.55;62.50098;945.1652;;;;
2023/01/31 10:45:22;;;;;;;2;1.8;;;;;;;4.36;62.64355;945.1079;;;;
2023/01/31 10:47:47;;;;;;;3;2.5;;;;;;;4.44;62.45313;945.051;;;;
2023/01/31 10:50:18;;;;;;;3;2;;;;;;;4.37;61.73242;944.9811;;;;
2023/01/31 10:52:46;;;;;;;3.3;2.5;;;;;;;4.37;62.16016;944.9426;;;;
2023/01/31 10:55:11;;;;;;;4.2;2.5;;;;;;;4.25;62.00781;944.8019;;;;
2023/01/31 10:57:36;;;;;;;4.7;2.7;;;;;;;4.11;62.98926;944.7474;;;;
2023/01/31 11:00:04;;;;;;;4.5;2.9;;;;;;;4.12;64.27246;944.7236;;;;
2023/01/31 11:02:30;;;;;;;4.8;2.5;;;;;;;4.14;62.54297;944.6461;;;;
2023/01/31 11:04:55;;;;;;;4.6;2.9;;;;;;;4.53;62.16211;944.6731;;;;
2023/01/31 11:07:20;;;;;;;3.3;2.2;;;;;;;4.92;59.85059;944.6163;;;;
2023/01/31 11:09:45;;;;;;;3.3;2.2;;;;;;;5.07;60.04199;944.6881;;;;
2023/01/31 11:12:10;;;;;;;3.4;2.2;;;;;;;5.29;59.36133;944.6971;;;;
2023/01/31 11:14:38;;;;;;;3;2.1;;;;;;;5.64;57.75098;944.6094;;;;
2023/01/31 11:17:03;;;;;;;3.4;2.1;;;;;;;5.86;57.46484;944.551;;;;
2023/01/31 11:19:29;;;;;;;3.3;2.1;;;;;;;6.18;57.56445;944.5037;;;;
2023/01/31 11:21:54;;;;;;;2.6;2;;;;;;;6.43;57.48535;944.472;;;;
2023/01/31 11:24:22;;;;;;;4.3;2.5;;;;;;;6.11;57.40723;944.4476;;;;
2023/01/31 11:26:49;;;;;;;5.2;2.5;;;;;;;6.28;55.96094;944.3692;;;;
2023/01/31 11:29:15;;;;;;;3.7;2.3;;;;;;;6.59;56.46484;944.3906;;;;
2023/01/31 11:31:40;;;;;;;3;2.2;;;;;;;6.77;55.68555;944.3977;;;;
2023/01/31 11:34:05;;;;;;;4.5;2.5;;;;;;;6.87;55.08691;944.2556;;;;
2023/01/31 11:36:31;;;;;;;3.6;2.9;;;;;;;6.56;55.17188;944.3222;;;;
2023/01/31 11:38:58;;;;;;;3.5;2.6;;;;;;;6.65;55.26367;944.264;;;;
2023/01/31 11:41:26;;;;;;;4.2;2.9;;;;;;;6.64;56.09766;944.1867;;;;
2023/01/31 11:43:56;;;;;;;4.4;2.8;;;;;;;6.87;54.89453;944.2438;;;;
2023/01/31 11:46:18;;;;;;;5.5;3;;;;;;;6.97;55.98242;944.1227;;;;
2023/01/31 11:48:43;;;;;;;4.5;3.3;;;;;;;7.23;54.94141;944.1191;;;;
2023/01/31 11:51:09;;;;;;;3.7;2.5;;;;;;;7.48;53.90723;944.0208;;;;
2023/01/31 11:53:34;;;;;;;4.6;3;;;;;;;7.1;54.90137;943.9745;;;;
2023/01/31 11:56:03;;;;;;;4.4;2.8;;;;;;;7.49;53.91992;943.869;;;;
2023/01/31 11:58:30;;;;;;;5;2.8;;;;;;;7.77;53.55762;943.8242;;;;
2023/01/31 12:00:55;;;;;;;4.8;2.7;;;;;;;7.53;53.71973;943.7932;;;;
2023/01/31 12:03:20;;;;;;;4.8;2.8;;;;;;;7.41;53.26465;943.7992;;;;
2023/01/31 12:05:45;;;;;;;4.3;2.7;;;;;;;7.37;53.59863;943.7961;;;;
2023/01/31 12:08:10;;;;;;;4;2.6;;;;;;;7.38;53.93848;943.7757;;;;
2023/01/31 12:10:37;;;;;;;4.7;2.7;;;;;;;7.4;53.625;943.8041;;;;
2023/01/31 12:13:02;;;;;;;3.5;2.8;;;;;;;7.79;53.27637;943.7162;;;;
2023/01/31 12:15:27;;;;;;;5.2;3;;;;;;;8;52.68945;943.7184;;;;
2023/01/31 12:17:56;;;;;;;4.7;2.8;;;;;;;7.64;54.38086;943.6184;;;;
2023/01/31 12:20:21;;;;;;;3.6;2.6;;;;;;;7.26;54.20898;943.6653;;;;
2023/01/31 12:22:47;;;;;;;4.3;2.9;;;;;;;7.33;54.80664;943.6627;;;;
2023/01/31 12:25:17;;;;;;;6.8;3.2;;;;;;;7.11;55.89941;943.6603;;;;
2023/01/31 12:27:43;;;;;;;3.9;2.8;;;;;;;6.93;56.71484;943.6244;;;;
2023/01/31 12:30:15;;;;;;;4.4;2.4;;;;;;;6.56;57.35547;943.6286;;;;
2023/01/31 12:32:48;;;;;;;4.7;3;;;;;;;6.15;58.03516;943.4497;;;;
2023/01/31 12:35:15;;;;;;;4.8;2.9;;;;;;;6.23;58.18164;943.4907;;;;
2023/01/31 12:37:44;;;;;;;4.5;3.1;;;;;;;6.26;58.11621;943.3777;;;;
2023/01/31 12:40:20;;;;;;;6.1;3.2;;;;;;;6.24;58.4541;943.3329;;;;
2023/01/31 12:42:45;;;;;;;4.2;2.8;;;;;;;6.37;57.96289;943.303;;;;
2023/01/31 12:45:13;;;;;;;4.8;2.8;;;;;;;6.63;56.75391;943.2947;;;;
2023/01/31 12:47:43;;;;;;;4.4;2.5;;;;;;;6.62;56.44629;943.2271;;;;
2023/01/31 12:50:11;;;;;;;3.6;2.5;;;;;;;6.61;55.70898;943.1852;;;;
2023/01/31 12:52:37;;;;;;;4.3;2.6;;;;;;;6.76;56.71387;943.2307;;;;
2023/01/31 12:55:02;;;;;;;5.4;2.9;;;;;;;6.91;55.52246;943.0814;;;;
2023/01/31 12:57:27;;;;;;;4.7;3;;;;;;;6.73;54.75195;943.1697;;;;
2023/01/31 12:59:52;;;;;;;4.9;2.6;;;;;;;6.69;56.01367;943.0728;;;;
2023/01/31 13:02:19;;;;;;;5.6;3.3;;;;;;;6.51;55.96777;942.9432;;;;
2023/01/31 13:04:44;;;;;;;4.4;3.4;;;;;;;6.54;55.83691;943.0005;;;;
2023/01/31 13:07:09;;;;;;;5.4;2.8;;;;;;;6.31;57.20801;943.0408;;;;
2023/01/31 13:09:34;;;;;;;5.4;3.2;;;;;;;6.26;57.6543;942.9167;;;;
2023/01/31 13:12:00;;;;;;;4.8;2.7;;;;;;;6.24;58.72461;942.9144;;;;
2023/01/31 13:14:24;;;;;;;6.2;3.6;;;;;;;6.33;57.97949;942.9372;;;;
2023/01/31 13:16:49;;;;;;;5.1;3;;;;;;;6.49;57.50391;942.8279;;;;
2023/01/31 13:19:14;;;;;;;3.3;2.7;;;;;;;6.52;57.4834;942.846;;;;
2023/01/31 13:21:39;;;;;;;5.1;3;;;;;;;6.62;57.18262;942.8499;;;;
2023/01/31 13:24:05;;;;;;;6.2;3.4;;;;;;;6.76;57.22363;942.7869;;;;
2023/01/31 13:26:31;;;;;;;4.2;3.2;;;;;;;6.79;57.67969;942.7949;;;;
2023/01/31 13:28:57;;;;;;;5.8;3.2;;;;;;;6.65;57.0498;942.7225;;;;
2023/01/31 13:31:22;;;;;;;5.7;3.4;;;;;;;6.62;57.59961;942.7539;;;;
2023/01/31 13:33:47;;;;;;;6;3.4;;;;;;;6.63;57.24023;942.6657;;;;
2023/01/31 13:36:17;;;;;;;5.1;3.7;;;;;;;7.64;56.78516;942.7228;;;;
2023/01/31 13:38:42;;;;;;;6.7;4;;;;;;;10.29;47.38965;942.6125;;;;
2023/01/31 13:41:07;;;;;;;4.6;2.9;;;;;;;12.33;41.93945;942.6832;;;;
2023/01/31 13:43:32;;;;;;;2.5;2.2;;;;;;;15.5;36.5625;942.4762;;;;
2023/01/31 13:45:57;;;;;;;4.9;2.1;;;;;;;17.47;32.27246;942.4677;;;;
2023/01/31 13:48:22;;;;;;;2.7;2;;;;;;;18.4;30.59766;942.498;;;;
2023/01/31 13:50:47;;;;;;;2.6;1.4;;;;;;;20.3;27.9043;942.5466;;;;
2023/01/31 13:53:13;;;;;;;2.7;2;;;;;;;19.12;28.58594;942.5726;;;;
2023/01/31 13:55:38;;;;;;;2.6;1.8;;;;;;;15.56;32.52441;942.5466;;;;
2023/01/31 13:58:03;;;;;;;1.9;1.7;;;;;;;12.53;37.8291;942.5536;;;;
2023/01/31 14:00:28;;;;;;;3.4;1.8;;;;;;;13.51;38.90332;942.6277;;;;
2023/01/31 14:02:59;;;;;;;2.1;1.6;;;;;;;14.57;36.43945;942.563;;;;
2023/01/31 14:05:25;;;;;;;2.9;1.6;;;;;;;14.38;34.81055;942.5437;;;;
2023/01/31 14:07:50;;;;;;;3.2;1.9;;;;;;;11.97;38.98242;942.5504;;;;
2023/01/31 14:10:22;;;;;;;3.4;2.1;;;;;;;11.36;41.46777;942.565;;;;
2023/01/31 14:12:48;;;;;;;2.6;1.8;;;;;;;10.01;43.45801;942.5859;;;;
2023/01/31 14:15:13;;;;;;;4;2;;;;;;;8.95;46.43555;942.6727;;;;
2023/01/31 14:17:38;;;;;;;3.6;2.2;;;;;;;8.38;48.46484;942.7275;;;;
2023/01/31 14:20:06;;;;;;;3.7;2.5;;;;;;;8.39;48.56836;942.7467;;;;
2023/01/31 14:22:35;;;;;;;3.5;2.3;;;;;;;8.49;48.625;942.6487;;;;
2023/01/31 14:25:02;;;;;;;4.4;2.5;;;;;;;7.54;49.95801;942.4924;;;;
2023/01/31 14:27:27;;;;;;;4.8;2.3;;;;;;;6.79;52.19043;942.5645;;;;
2023/01/31 14:29:52;;;;;;;4;2.8;;;;;;;6.31;55.01465;942.5758;;;;
2023/01/31 14:32:21;;;;;;;3.8;2.2;;;;;;;6.65;53.71387;942.6024;;;;
2023/01/31 14:34:46;;;;;;;5;2.7;;;;;;;6.57;54.24512;942.5441;;;;
2023/01/31 14:37:14;;;;;;;3.8;2.3;;;;;;;6.66;54.10938;942.5488;;;;
2023/01/31 14:39:44;;;;;;;3.3;2.5;;;;;;;6.57;55.10449;942.4553;;;;
2023/01/31 14:42:08;;;;;;;4.8;3.9;;;;;;;6.14;55.68359;942.5733;;;;
2023/01/31 14:44:33;;;;;;;7;4.1;;;;;;;5.95;57.51172;942.4956;;;;
2023/01/31 14:47:00;;;;;;;4.5;3.1;;;;;;;5.51;58.54688;942.3847;;;;
2023/01/31 14:49:25;;;;;;;4.6;3.2;;;;;;;5.46;57.88477;942.4525;;;;
2023/01/31 14:52:00;;;;;;;5.1;3.2;;;;;;;5.55;58.47266;942.4881;;;;
2023/01/31 14:54:27;;;;;;;4.5;2.4;;;;;;;5.78;57.74805;942.5154;;;;
2023/01/31 14:56:53;;;;;;;4.3;2.6;;;;;;;5.83;57.2002;942.4216;;;;
2023/01/31 14:59:18;;;;;;;4.8;2.6;;;;;;;5.42;58.58887;942.5079;;;;
2023/01/31 15:01:43;;;;;;;3.1;2.3;;;;;;;5.19;59.80957;942.5229;;;;
2023/01/31 15:04:08;;;;;;;4.5;2.3;;;;;;;5.16;60.09961;942.5005;;;;
2023/01/31 15:06:39;;;;;;;4.9;2.6;;;;;;;5.21;60.0498;942.4111;;;;
2023/01/31 15:09:03;;;;;;;4.1;2.4;;;;;;;5.25;58.97266;942.3303;;;;
2023/01/31 15:11:28;;;;;;;2.9;2.2;;;;;;;5.14;59.13672;942.2905;;;;
2023/01/31 15:13:56;;;;;;;4.7;2.4;;;;;;;5.24;59.44531;942.3798;;;;
2023/01/31 15:16:21;;;;;;;4.1;2.6;;;;;;;5.26;59.27832;942.3772;;;;
2023/01/31 15:18:47;;;;;;;3.1;2.6;;;;;;;5.02;60.33789;942.4037;;;;
2023/01/31 15:21:13;;;;;;;4.3;2.8;;;;;;;5.23;59.79395;942.3084;;;;
2023/01/31 15:23:38;;;;;;;3.8;3;;;;;;;5.14;60.33398;942.5505;;;;
2023/01/31 15:26:03;;;;;;;4;3.2;;;;;;;5.23;61.24902;942.3897;;;;
2023/01/31 15:28:31;;;;;;;4.8;3.3;;;;;;;5.36;61.77441;942.4969;;;;
2023/01/31 15:30:56;;;;;;;5.9;3.5;;;;;;;5.28;60.01563;942.4177;;;;
2023/01/31 15:33:25;;;;;;;4.9;3.4;;;;;;;5.23;60.57227;942.557;;;;
2023/01/31 15:35:48;;;;;;;5;3.7;;;;;;;5.17;62.7959;942.5868;;;;
2023/01/31 15:38:12;;;;;;;6.3;3.8;;;;;;;4.88;63.41797;942.5042;;;;
2023/01/31 15:40:38;;;;;;;7.4;5.4;;;;;;;4.85;63.69531;942.5488;;;;
2023/01/31 15:43:05;;;;;;;6.1;4.1;;;;;;;4.66;63.93652;942.5452;;;;
2023/01/31 15:45:35;;;;;;;4.6;3.2;;;;;;;4.3;62.4541;942.7026;;;;
2023/01/31 15:48:00;;;;;;;3.1;2.6;;;;;;;4.43;62.29395;942.7255;;;;
2023/01/31 15:50:29;;;;;;;5.2;3.1;;;;;;;4.23;62.4209;942.7486;;;;
2023/01/31 15:52:54;;;;;;;4.7;3.2;;;;;;;4.27;64.32813;942.9614;;;;
2023/01/31 15:55:21;;;;;;;6.9;5.1;;;;;;;4.2;65.44238;943.0795;;;;
2023/01/31 15:57:46;;;;;;;7.9;3.8;;;;;;;4.36;63.1377;942.8411;;;;
2023/01/31 16:00:15;;;;;;;5.1;3.2;;;;;;;4.41;61.88477;942.7773;;;;
2023/01/31 16:02:41;;;;;;;6.2;3.1;;;;;;;4.4;63.00879;942.7782;;;;
2023/01/31 16:05:06;;;;;;;6.2;3.2;;;;;;;4.36;64.16211;942.9152;;;;
2023/01/31 16:07:32;;;;;;;6.2;3.6;;;;;;;4.16;64.52734;942.8904;;;;
2023/01/31 16:10:02;;;;;;;4.2;2.7;;;;;;;4.29;64.01758;942.8661;;;;
2023/01/31 16:12:26;;;;;;;3.9;3.1;;;;;;;4.42;64.82422;942.9433;;;;
2023/01/31 16:14:57;;;;;;;6;4.2;;;;;;;4.28;65.24219;943.0353;;;;
2023/01/31 16:17:22;;;;;;;6;3.3;;;;;;;4.12;65.8252;942.9905;;;;
2023/01/31 16:19:47;;;;;;;8.8;4.4;;;;;;;4.2;65.24023;942.9511;;;;